Time;durP1;ratioP1;P1;durP2;ratioP2;P2;SDS_P1;SDS_P2;PMS_P1;PMS_P2;Temp;Humidity;BMP_temperature;BMP_pressure;BME280_temperature;BME280_humidity;BME280_pressure;Samples;Min_cycle;Max_cycle;Signal;HPM_P1;HPM_P2
2022/01/20 00:00:16;;;;;;;64.32;19.55;;;;;;;-13.05;100.00;101473.25;1743398;82;20988;-87
2022/01/20 00:02:42;;;;;;;59.42;19.40;;;;;;;-13.02;100.00;101484.74;1743878;82;21480;-87
2022/01/20 00:27:06;;;;;;;55.12;19.35;;;;;;;-13.16;100.00;101454.38;1808107;79;20994;-88
2022/01/20 00:29:31;;;;;;;50.98;18.15;;;;;;;-13.20;100.00;101456.78;1805973;79;21511;-88
2022/01/20 00:34:42;;;;;;;50.52;18.07;;;;;;;-13.24;100.00;101442.30;1755837;81;20994;-87
2022/01/20 00:39:39;;;;;;;56.77;19.92;;;;;;;-13.30;100.00;101445.27;1755507;80;21006;-88
2022/01/20 00:42:05;;;;;;;62.95;21.30;;;;;;;-13.31;100.00;101448.33;1748000;81;21952;-88
2022/01/20 00:44:31;;;;;;;58.23;19.87;;;;;;;-13.33;100.00;101453.22;1736767;81;21073;-88
2022/01/20 00:46:57;;;;;;;65.42;20.72;;;;;;;-13.37;100.00;101462.09;1703519;83;26097;-88
2022/01/20 00:49:23;;;;;;;60.20;20.32;;;;;;;-13.40;100.00;101464.86;1725717;83;29043;-88
2022/01/20 00:51:49;;;;;;;61.28;21.05;;;;;;;-13.42;100.00;101468.81;1726012;83;26565;-88
2022/01/20 00:54:15;;;;;;;58.73;20.45;;;;;;;-13.39;100.00;101471.70;1725975;82;21156;-88
2022/01/20 00:56:40;;;;;;;62.35;21.30;;;;;;;-13.40;100.00;101472.16;1726134;81;26705;-88
2022/01/20 00:59:06;;;;;;;61.20;20.97;;;;;;;-13.39;100.00;101462.62;1753203;80;26529;-88
2022/01/20 01:01:32;;;;;;;68.30;22.58;;;;;;;-13.42;100.00;101468.81;1755728;81;28242;-88
2022/01/20 01:03:58;;;;;;;66.42;20.77;;;;;;;-13.46;100.00;101460.01;1756198;81;21632;-89
2022/01/20 01:06:37;;;;;;;59.80;19.48;;;;;;;-13.49;100.00;101447.22;1755928;81;21799;-88
2022/01/20 01:08:52;;;;;;;85.15;22.85;;;;;;;-13.59;100.00;101442.51;1726666;81;21002;-88
2022/01/20 01:11:19;;;;;;;76.07;23.52;;;;;;;-13.56;100.00;101437.63;1774075;78;26553;-89
2022/01/20 01:13:45;;;;;;;68.57;22.45;;;;;;;-13.56;100.00;101428.55;1825313;78;20944;-88
2022/01/20 01:16:13;;;;;;;70.28;23.27;;;;;;;-13.58;100.00;101429.13;1817177;78;20952;-88
2022/01/20 01:21:29;;;;;;;70.12;22.85;;;;;;;-13.67;100.00;101419.26;1792651;80;21011;-86
2022/01/20 01:23:54;;;;;;;64.30;20.55;;;;;;;-13.71;100.00;101417.73;1792638;79;21288;-87
2022/01/20 01:26:24;;;;;;;69.92;20.60;;;;;;;-13.79;100.00;101416.87;1793308;79;20980;-87
2022/01/20 01:28:50;;;;;;;60.58;20.08;;;;;;;-13.80;100.00;101414.72;1789791;80;20975;-87
2022/01/20 01:31:32;;;;;;;60.50;19.82;;;;;;;-13.79;100.00;101409.94;1773322;80;21019;-87
2022/01/20 01:33:56;;;;;;;67.78;21.07;;;;;;;-13.81;100.00;101411.77;1789541;80;21081;-86
2022/01/20 01:36:24;;;;;;;62.50;19.92;;;;;;;-13.83;100.00;101411.00;1792537;79;20936;-86
2022/01/20 01:38:51;;;;;;;63.70;19.25;;;;;;;-13.79;100.00;101414.28;1793033;79;21042;-87
2022/01/20 01:43:50;;;;;;;65.50;21.35;;;;;;;-13.81;100.00;101415.65;1723721;83;21575;-87
2022/01/20 01:46:17;;;;;;;59.13;19.37;;;;;;;-13.80;100.00;101420.36;1723167;83;21012;-87
2022/01/20 01:48:45;;;;;;;60.75;19.52;;;;;;;-13.85;100.00;101415.45;1723423;83;21090;-86
2022/01/20 01:51:12;;;;;;;63.85;19.23;;;;;;;-13.85;100.00;101411.56;1724159;83;22323;-86
2022/01/20 01:53:40;;;;;;;54.00;18.80;;;;;;;-13.88;100.00;101413.02;1724539;83;21634;-87
2022/01/20 01:56:07;;;;;;;66.17;19.75;;;;;;;-13.96;100.00;101412.59;1724242;83;21903;-87
2022/01/20 01:58:33;;;;;;;57.38;20.32;;;;;;;-14.00;100.00;101406.75;1723955;83;21515;-87
2022/01/20 02:01:00;;;;;;;60.73;20.92;;;;;;;-14.03;100.00;101405.61;1724023;83;21619;-86
2022/01/20 02:03:26;;;;;;;77.08;23.25;;;;;;;-14.03;100.00;101407.34;1724308;83;21012;-86
2022/01/20 02:06:25;;;;;;;66.33;21.00;;;;;;;-14.02;100.00;101415.05;1724170;83;21019;-87
2022/01/20 02:19:20;;;;;;;55.73;18.40;;;;;;;-14.02;100.00;101421.52;1691542;84;21042;-89
2022/01/20 02:21:50;;;;;;;60.63;20.12;;;;;;;-14.00;100.00;101428.75;1724369;81;21178;-88
2022/01/20 02:24:17;;;;;;;57.35;19.05;;;;;;;-14.00;100.00;101424.88;1740219;81;21102;-88
2022/01/20 02:26:43;;;;;;;58.95;19.65;;;;;;;-14.01;100.00;101424.94;1739899;81;21026;-87
2022/01/20 02:29:11;;;;;;;61.83;20.52;;;;;;;-14.00;100.00;101424.01;1739765;81;21441;-87
2022/01/20 02:31:37;;;;;;;58.20;18.23;;;;;;;-14.01;100.00;101422.34;1740088;81;21634;-88
2022/01/20 02:34:03;;;;;;;53.38;17.98;;;;;;;-13.97;100.00;101419.96;1740087;81;21058;-87
2022/01/20 02:36:30;;;;;;;54.73;17.80;;;;;;;-13.95;100.00;101412.95;1740019;81;21027;-87
2022/01/20 02:39:03;;;;;;;58.13;19.95;;;;;;;-13.93;100.00;101404.66;1739854;81;21079;-88
2022/01/20 02:46:53;;;;;;;60.78;19.40;;;;;;;-13.99;100.00;101399.81;1739182;81;21067;-88
2022/01/20 02:49:19;;;;;;;59.75;19.57;;;;;;;-13.97;100.00;101394.06;1737327;81;20999;-87
2022/01/20 02:51:53;;;;;;;58.83;18.17;;;;;;;-13.96;100.00;101389.28;1726808;81;21510;-87
2022/01/20 02:54:21;;;;;;;69.60;21.30;;;;;;;-13.96;100.00;101384.94;1726488;81;21602;-87
2022/01/20 02:56:47;;;;;;;57.75;19.98;;;;;;;-13.95;100.00;101385.77;1726514;81;21033;-87
2022/01/20 02:59:14;;;;;;;68.05;22.32;;;;;;;-13.97;100.00;101392.34;1726459;81;21079;-87
2022/01/20 03:01:40;;;;;;;72.62;23.70;;;;;;;-13.97;100.00;101388.89;1726706;81;21045;-88
2022/01/20 03:04:07;;;;;;;67.37;23.05;;;;;;;-13.95;100.00;101388.36;1726816;81;21007;-87
2022/01/20 03:06:33;;;;;;;68.42;22.32;;;;;;;-13.98;100.00;101386.77;1731252;80;22398;-87
2022/01/20 03:08:58;;;;;;;59.80;20.40;;;;;;;-14.01;100.00;101380.92;1793363;80;21066;-87
2022/01/20 03:11:25;;;;;;;62.45;21.12;;;;;;;-14.03;100.00;101383.61;1793188;80;21970;-88
2022/01/20 03:13:51;;;;;;;74.45;21.50;;;;;;;-14.06;100.00;101382.91;1793068;79;21602;-87
2022/01/20 03:16:17;;;;;;;52.78;19.98;;;;;;;-14.09;100.00;101386.49;1792901;79;26228;-88
2022/01/20 03:18:42;;;;;;;66.37;22.70;;;;;;;-14.11;100.00;101377.99;1793315;80;28117;-88
2022/01/20 03:21:08;;;;;;;69.97;21.00;;;;;;;-14.07;100.00;101378.66;1793088;80;27107;-88
2022/01/20 03:23:35;;;;;;;68.67;19.50;;;;;;;-14.07;100.00;101375.61;1793234;80;21751;-88
2022/01/20 03:26:00;;;;;;;56.15;18.10;;;;;;;-14.10;100.00;101371.89;1792881;80;21014;-88
2022/01/20 03:28:26;;;;;;;56.00;18.27;;;;;;;-14.14;100.00;101370.39;1793328;80;25960;-89
2022/01/20 03:30:52;;;;;;;54.15;18.77;;;;;;;-14.20;100.00;101375.44;1793191;80;28726;-88
2022/01/20 03:33:18;;;;;;;59.77;20.50;;;;;;;-14.22;100.00;101381.14;1793401;80;26586;-88
2022/01/20 03:35:44;;;;;;;62.67;20.62;;;;;;;-14.21;100.00;101380.67;1793416;80;21096;-88
2022/01/20 03:38:10;;;;;;;62.98;20.52;;;;;;;-14.20;100.00;101374.60;1793241;79;21101;-89
2022/01/20 03:40:36;;;;;;;59.53;18.40;;;;;;;-14.22;100.00;101379.02;1793258;80;21393;-88
2022/01/20 03:43:03;;;;;;;61.35;20.80;;;;;;;-14.23;100.00;101379.48;1793246;79;28134;-88
2022/01/20 03:45:29;;;;;;;64.58;19.17;;;;;;;-14.25;100.00;101382.59;1793102;80;20996;-88
2022/01/20 03:48:05;;;;;;;54.45;18.57;;;;;;;-14.24;100.00;101376.95;1793089;79;21760;-88
2022/01/20 03:53:08;;;;;;;57.62;19.73;;;;;;;-14.23;100.00;101367.83;1798853;79;21030;-88
2022/01/20 03:55:34;;;;;;;54.33;18.50;;;;;;;-14.24;100.00;101373.91;1799018;79;21030;-88
2022/01/20 03:58:00;;;;;;;53.23;18.52;;;;;;;-14.26;100.00;101374.93;1799244;79;27372;-88
2022/01/20 04:00:26;;;;;;;68.67;22.93;;;;;;;-14.23;100.00;101375.59;1799251;79;21649;-88
2022/01/20 04:02:52;;;;;;;59.15;20.70;;;;;;;-14.21;100.00;101377.62;1799133;79;21480;-88
2022/01/20 04:05:18;;;;;;;57.60;19.42;;;;;;;-14.19;100.00;101368.03;1799296;79;25555;-88
2022/01/20 04:07:44;;;;;;;69.70;22.02;;;;;;;-14.22;100.00;101373.84;1799446;78;28183;-88
2022/01/20 04:10:10;;;;;;;64.22;21.27;;;;;;;-14.25;100.00;101370.95;1799300;79;26592;-89
2022/01/20 04:12:36;;;;;;;70.90;22.32;;;;;;;-14.28;100.00;101366.40;1779027;79;21386;-89
2022/01/20 04:15:07;;;;;;;61.48;21.97;;;;;;;-14.32;100.00;101371.34;1799192;79;25867;-88
2022/01/20 04:17:31;;;;;;;71.77;22.07;;;;;;;-14.36;100.00;101370.67;1796574;79;21057;-88
2022/01/20 04:19:57;;;;;;;62.98;21.82;;;;;;;-14.39;100.00;101374.72;1798806;79;21066;-88
2022/01/20 04:22:24;;;;;;;71.02;22.73;;;;;;;-14.42;100.00;101376.17;1799546;79;26469;-88
2022/01/20 04:24:50;;;;;;;57.35;20.27;;;;;;;-14.44;100.00;101371.09;1799237;79;21129;-89
2022/01/20 04:27:16;;;;;;;60.08;19.05;;;;;;;-14.49;100.00;101369.66;1799545;79;21436;-88
2022/01/20 04:29:42;;;;;;;56.13;19.42;;;;;;;-14.53;100.00;101368.98;1799085;79;21004;-88
2022/01/20 04:32:09;;;;;;;51.77;17.62;;;;;;;-14.56;100.00;101363.14;1799423;79;28110;-89
2022/01/20 04:34:35;;;;;;;59.83;18.52;;;;;;;-14.57;100.00;101365.36;1799058;79;21526;-88
2022/01/20 04:37:04;;;;;;;53.60;18.62;;;;;;;-14.52;100.00;101375.02;1799188;78;21116;-88
2022/01/20 04:39:31;;;;;;;56.60;18.02;;;;;;;-14.49;100.00;101370.95;1798560;79;21011;-88
2022/01/20 04:41:56;;;;;;;50.78;17.25;;;;;;;-14.47;100.00;101373.84;1783314;79;21007;-89
2022/01/20 04:44:42;;;;;;;57.23;17.23;;;;;;;-14.42;100.00;101368.41;1799354;79;28180;-89
2022/01/20 04:57:53;;;;;;;54.40;17.32;;;;;;;-14.42;100.00;101368.41;1792625;80;21019;-88
2022/01/20 05:00:19;;;;;;;49.63;17.25;;;;;;;-14.44;100.00;101367.21;1793443;79;26548;-87
2022/01/20 05:02:45;;;;;;;47.17;15.48;;;;;;;-14.44;100.00;101367.21;1793194;79;20991;-88
2022/01/20 05:05:11;;;;;;;52.60;17.90;;;;;;;-14.44;100.00;101375.41;1793307;79;21647;-88
2022/01/20 05:07:37;;;;;;;52.48;17.70;;;;;;;-14.46;100.00;101369.50;1773446;80;26618;-88
2022/01/20 05:10:07;;;;;;;58.20;16.15;;;;;;;-14.47;100.00;101367.38;1793340;80;21543;-87
2022/01/20 05:13:01;;;;;;;52.67;17.00;;;;;;;-14.47;100.00;101375.56;1792707;79;21511;-87
2022/01/20 05:15:04;;;;;;;61.25;19.12;;;;;;;-14.50;100.00;101374.00;1769897;80;21143;-88
2022/01/20 05:17:30;;;;;;;57.45;18.02;;;;;;;-14.49;100.00;101370.48;1793033;80;21081;-88
2022/01/20 05:19:55;;;;;;;54.65;18.98;;;;;;;-14.46;100.00;101373.38;1793389;80;25644;-88
2022/01/20 05:22:21;;;;;;;53.75;19.15;;;;;;;-14.44;100.00;101374.11;1793170;80;28205;-88
2022/01/20 05:24:47;;;;;;;56.45;19.37;;;;;;;-14.38;100.00;101363.91;1793580;80;26966;-88
2022/01/20 05:27:13;;;;;;;54.85;19.02;;;;;;;-14.35;100.00;101356.84;1793242;79;21807;-88
2022/01/20 05:29:39;;;;;;;51.05;18.40;;;;;;;-14.36;100.00;101361.62;1793488;80;26659;-87
2022/01/20 05:32:05;;;;;;;52.65;17.70;;;;;;;-14.32;100.00;101355.81;1793502;80;26418;-88
2022/01/20 05:34:31;;;;;;;57.65;19.65;;;;;;;-14.25;100.00;101355.42;1793326;80;21031;-87
2022/01/20 05:36:57;;;;;;;66.70;21.33;;;;;;;-14.16;100.00;101363.63;1806538;78;27110;-88
2022/01/20 05:39:24;;;;;;;60.60;19.57;;;;;;;-14.08;100.00;101359.70;1825857;78;21683;-88
2022/01/20 05:41:50;;;;;;;70.62;21.95;;;;;;;-14.00;100.00;101361.86;1802152;78;22340;-88
2022/01/20 05:44:16;;;;;;;67.22;20.60;;;;;;;-13.90;100.00;101357.05;1793303;79;26797;-88
2022/01/20 05:46:47;;;;;;;72.82;22.60;;;;;;;-13.74;100.00;101359.16;1795913;78;20983;-88
2022/01/20 05:49:10;;;;;;;70.10;22.62;;;;;;;-13.53;100.00;101362.30;1786944;80;21448;-88
2022/01/20 05:51:39;;;;;;;68.30;23.02;;;;;;;-13.33;100.00;101364.61;1795567;78;21864;-88
2022/01/20 05:54:07;;;;;;;75.97;23.22;;;;;;;-13.12;100.00;101364.28;1702288;83;21068;-87
2022/01/20 05:56:34;;;;;;;71.33;22.98;;;;;;;-12.86;100.00;101366.20;1702643;83;21641;-88
2022/01/20 05:59:01;;;;;;;87.22;25.02;;;;;;;-12.39;100.00;101369.50;1702762;83;21088;-87
2022/01/20 06:01:27;;;;;;;80.20;26.57;;;;;;;-12.09;100.00;101365.48;1702518;83;21101;-87
2022/01/20 06:03:54;;;;;;;87.60;25.52;;;;;;;-11.69;100.00;101362.51;1702175;83;21051;-87
2022/01/20 06:06:21;;;;;;;87.15;26.42;;;;;;;-11.21;100.00;101362.05;1702486;83;21403;-86
2022/01/20 06:08:47;;;;;;;74.95;23.55;;;;;;;-10.90;100.00;101365.25;1701832;83;21110;-87
2022/01/20 06:11:13;;;;;;;73.85;25.00;;;;;;;-10.77;100.00;101366.08;1678860;83;21092;-87
2022/01/20 06:13:40;;;;;;;82.08;24.60;;;;;;;-10.58;100.00;101367.83;1702317;83;21080;-87
2022/01/20 06:16:06;;;;;;;81.53;25.72;;;;;;;-10.40;100.00;101362.30;1644092;86;21925;-86
2022/01/20 06:18:32;;;;;;;77.05;24.32;;;;;;;-10.00;100.00;101355.11;1643878;86;21157;-86
2022/01/20 06:20:58;;;;;;;67.50;21.68;;;;;;;-9.81;100.00;101354.66;1643742;86;21136;-86
2022/01/20 06:23:25;;;;;;;48.80;14.80;;;;;;;-9.69;100.00;101356.86;1643958;86;21096;-86
2022/01/20 06:25:51;;;;;;;36.70;12.60;;;;;;;-9.57;100.00;101359.89;1640164;86;21082;-86
2022/01/20 06:28:19;;;;;;;50.70;15.75;;;;;;;-9.47;100.00;101357.44;1643643;86;21808;-86
2022/01/20 06:30:46;;;;;;;34.43;12.85;;;;;;;-9.36;100.00;101343.14;1643783;86;38482;-86
2022/01/20 06:33:12;;;;;;;56.18;18.00;;;;;;;-9.25;100.00;101340.59;1643689;86;21549;-86
2022/01/20 06:35:38;;;;;;;57.70;18.82;;;;;;;-9.10;100.00;101340.41;1644195;86;21114;-86
2022/01/20 06:38:05;;;;;;;53.48;16.70;;;;;;;-8.97;100.00;101335.91;1643965;86;21082;-86
2022/01/20 06:40:32;;;;;;;46.00;15.65;;;;;;;-8.80;100.00;101336.79;1668509;84;21148;-86
2022/01/20 06:42:59;;;;;;;46.00;14.30;;;;;;;-8.61;100.00;101334.11;1702370;83;21096;-86
2022/01/20 06:45:25;;;;;;;52.40;14.28;;;;;;;-8.44;100.00;101324.51;1702322;83;21581;-86
2022/01/20 06:47:51;;;;;;;40.70;13.28;;;;;;;-8.25;100.00;101325.17;1707632;81;21120;-86
2022/01/20 06:50:17;;;;;;;57.43;18.92;;;;;;;-8.12;100.00;101318.02;1749016;77;21108;-86
2022/01/20 06:52:44;;;;;;;195.92;67.40;;;;;;;-7.93;100.00;101307.44;1772910;78;21161;-87
2022/01/20 06:55:13;;;;;;;49.40;16.02;;;;;;;-7.72;100.00;101306.19;1818859;77;20962;-85
2022/01/20 06:57:40;;;;;;;55.50;19.37;;;;;;;-7.52;100.00;101306.72;1840752;77;21480;-87
2022/01/20 07:00:11;;;;;;;42.08;12.68;;;;;;;-7.34;100.00;101305.21;1814797;77;21579;-87
2022/01/20 07:02:37;;;;;;;44.10;14.10;;;;;;;-7.21;100.00;101302.41;1820710;78;21070;-86
2022/01/20 07:05:04;;;;;;;54.25;18.10;;;;;;;-7.13;100.00;101296.55;1819939;78;21189;-86
2022/01/20 07:07:31;;;;;;;49.55;16.50;;;;;;;-7.01;100.00;101291.59;1820181;78;21039;-86
2022/01/20 07:09:57;;;;;;;40.63;13.43;;;;;;;-6.82;100.00;101300.52;1820363;78;21039;-87
2022/01/20 07:12:24;;;;;;;42.00;13.10;;;;;;;-6.65;100.00;101298.61;1820269;77;21046;-86
2022/01/20 07:14:50;;;;;;;36.55;12.15;;;;;;;-6.46;100.00;101298.72;1820417;77;21519;-85
2022/01/20 07:17:16;;;;;;;50.03;15.93;;;;;;;-6.30;100.00;101307.39;1821190;77;21042;-85
2022/01/20 07:19:42;;;;;;;49.45;14.38;;;;;;;-6.13;100.00;101298.55;1820817;77;20841;-85
2022/01/20 07:22:08;;;;;;;44.48;13.72;;;;;;;-5.93;100.00;101298.95;1821186;78;21633;-85
2022/01/20 07:24:34;;;;;;;37.03;11.83;;;;;;;-5.74;100.00;101295.00;1821040;78;20883;-85
2022/01/20 07:27:00;;;;;;;38.85;12.35;;;;;;;-5.60;100.00;101299.52;1820728;78;21061;-85
2022/01/20 07:29:27;;;;;;;56.13;15.80;;;;;;;-5.39;100.00;101300.21;1820972;78;21031;-84
2022/01/20 07:31:54;;;;;;;71.57;18.12;;;;;;;-5.18;100.00;101296.61;1821046;77;21051;-85
2022/01/20 07:34:20;;;;;;;61.10;17.05;;;;;;;-4.97;100.00;101293.36;1820870;78;21043;-85
2022/01/20 07:36:46;;;;;;;63.58;18.87;;;;;;;-4.78;100.00;101291.16;1807249;78;20916;-86
2022/01/20 07:39:14;;;;;;;83.67;19.98;;;;;;;-4.62;100.00;101280.03;1821076;77;21612;-84
2022/01/20 07:41:40;;;;;;;102.78;29.92;;;;;;;-4.43;100.00;101284.41;1781886;80;21090;-85
2022/01/20 07:44:05;;;;;;;68.12;20.05;;;;;;;-4.23;100.00;101285.97;1778393;80;21624;-85
2022/01/20 07:46:31;;;;;;;73.22;18.77;;;;;;;-4.01;100.00;101281.28;1777356;80;20910;-86
2022/01/20 07:48:58;;;;;;;70.42;18.73;;;;;;;-3.80;100.00;101277.88;1752340;81;22536;-87
2022/01/20 07:51:24;;;;;;;72.82;19.82;;;;;;;-3.67;100.00;101270.45;1747251;81;21021;-85
2022/01/20 07:53:50;;;;;;;75.52;20.32;;;;;;;-3.46;100.00;101278.55;1726894;82;21660;-85
2022/01/20 07:56:15;;;;;;;67.87;19.80;;;;;;;-3.18;100.00;101276.63;1727636;82;21424;-86
2022/01/20 07:58:42;;;;;;;41.33;12.63;;;;;;;-2.89;100.00;101282.94;1727720;82;20910;-85
2022/01/20 08:01:10;;;;;;;36.35;11.88;;;;;;;-2.56;100.00;101279.17;1727561;82;21010;-85
2022/01/20 08:03:39;;;;;;;41.25;12.28;;;;;;;-2.41;100.00;101277.63;1728008;82;21045;-84
2022/01/20 08:06:05;;;;;;;31.07;10.82;;;;;;;-2.33;100.00;101284.73;1727944;82;21240;-85
2022/01/20 08:08:31;;;;;;;64.50;16.82;;;;;;;-2.15;100.00;101281.50;1727025;81;21014;-85
2022/01/20 08:10:58;;;;;;;58.05;15.72;;;;;;;-1.99;100.00;101279.92;1727112;82;21073;-85
2022/01/20 08:13:23;;;;;;;42.55;13.50;;;;;;;-1.74;100.00;101283.44;1727225;82;21089;-84
2022/01/20 08:15:50;;;;;;;39.53;12.63;;;;;;;-1.54;100.00;101279.52;1727424;82;20962;-85
2022/01/20 08:18:15;;;;;;;47.95;12.95;;;;;;;-1.37;100.00;101284.33;1721696;81;21137;-85
2022/01/20 08:20:43;;;;;;;36.38;10.85;;;;;;;-1.21;100.00;101287.46;1755546;81;20840;-85
2022/01/20 08:23:09;;;;;;;41.33;11.35;;;;;;;-1.03;100.00;101282.00;1666514;86;21042;-84
2022/01/20 08:25:35;;;;;;;42.67;11.33;;;;;;;-1.00;100.00;101274.58;1667258;86;21054;-83
2022/01/20 08:28:02;;;;;;;39.80;12.30;;;;;;;-0.96;100.00;101281.17;1667650;86;20978;-84
2022/01/20 08:30:28;;;;;;;44.90;13.95;;;;;;;-0.92;100.00;101271.90;1667549;86;21184;-84
2022/01/20 08:32:54;;;;;;;37.15;12.15;;;;;;;-0.82;100.00;101281.00;1667592;86;21124;-85
2022/01/20 08:35:23;;;;;;;37.03;12.07;;;;;;;-0.76;100.00;101280.83;1667598;86;20903;-85
2022/01/20 08:37:50;;;;;;;40.65;13.20;;;;;;;-0.77;100.00;101283.95;1677381;83;21035;-85
2022/01/20 08:40:22;;;;;;;35.88;12.05;;;;;;;-0.81;100.00;101278.67;1722016;83;21110;-85
2022/01/20 08:42:50;;;;;;;45.98;12.65;;;;;;;-0.81;100.00;101281.82;1721002;83;21068;-85
2022/01/20 08:45:22;;;;;;;47.05;13.78;;;;;;;-0.83;100.00;101275.86;1721700;83;21090;-85
2022/01/20 08:47:52;;;;;;;45.80;14.65;;;;;;;-0.75;100.00;101278.00;1721511;83;21094;-85
2022/01/20 08:50:19;;;;;;;47.00;13.80;;;;;;;-0.68;100.00;101271.52;1722167;83;21306;-85
2022/01/20 08:52:46;;;;;;;51.80;15.13;;;;;;;-0.63;100.00;101263.91;1729443;82;21155;-85
2022/01/20 08:55:12;;;;;;;56.83;15.32;;;;;;;-0.61;100.00;101257.14;1816460;78;21070;-85
2022/01/20 08:57:38;;;;;;;45.30;15.08;;;;;;;-0.58;100.00;101251.00;1792473;80;20978;-85
2022/01/20 09:00:09;;;;;;;55.50;14.40;;;;;;;-0.54;100.00;101254.95;1792986;80;21597;-85
2022/01/20 09:02:36;;;;;;;48.13;14.43;;;;;;;-0.50;100.00;101254.95;1792732;80;21078;-84
2022/01/20 09:05:05;;;;;;;49.80;15.15;;;;;;;-0.58;100.00;101251.00;1791859;79;21010;-84
2022/01/20 09:07:31;;;;;;;67.12;20.17;;;;;;;-0.70;100.00;101245.25;1792088;80;21333;-84
2022/01/20 09:09:59;;;;;;;67.27;18.95;;;;;;;-0.77;100.00;101244.75;1792103;80;21542;-84
2022/01/20 09:18:02;;;;;;;62.70;18.87;;;;;;;-0.76;100.00;101220.79;1645925;85;21075;-84
2022/01/20 09:20:29;;;;;;;82.42;24.40;;;;;;;-0.71;100.00;101211.00;1646183;85;21775;-83
2022/01/20 09:22:56;;;;;;;73.40;22.20;;;;;;;-0.64;100.00;101206.69;1646246;87;21567;-84
2022/01/20 09:25:25;;;;;;;59.65;18.95;;;;;;;-0.58;100.00;101203.86;1646563;85;20987;-84
2022/01/20 09:27:51;;;;;;;60.28;19.07;;;;;;;-0.61;100.00;101194.94;1614831;87;21084;-85
2022/01/20 09:30:21;;;;;;;80.12;22.48;;;;;;;-0.69;100.00;101199.75;1593686;88;21552;-84
2022/01/20 09:35:36;;;;;;;69.72;21.25;;;;;;;-0.66;100.00;101195.44;1614776;87;21090;-83
2022/01/20 09:38:04;;;;;;;68.70;19.07;;;;;;;-0.67;100.00;101184.54;1614269;87;21117;-84
2022/01/20 09:40:33;;;;;;;67.70;21.87;;;;;;;-0.65;100.00;101187.81;1615203;88;21510;-84
2022/01/20 09:43:00;;;;;;;146.55;47.27;;;;;;;-0.64;100.00;101180.23;1615081;87;21100;-85
2022/01/20 09:45:27;;;;;;;96.17;28.07;;;;;;;-0.63;100.00;101173.92;1614827;88;21616;-85
2022/01/20 09:47:54;;;;;;;179.72;62.38;;;;;;;-0.68;100.00;101188.16;1614693;87;21041;-85
2022/01/20 09:50:22;;;;;;;72.08;22.73;;;;;;;-0.69;100.00;101185.20;1615073;87;21144;-86
2022/01/20 09:52:50;;;;;;;65.05;19.82;;;;;;;-0.67;100.00;101183.22;1599050;87;20997;-85
2022/01/20 09:55:18;;;;;;;62.95;19.52;;;;;;;-0.70;100.00;101179.59;1595535;90;21001;-86
2022/01/20 09:57:45;;;;;;;59.70;19.02;;;;;;;-0.66;100.00;101178.23;1595262;90;21102;-84
2022/01/20 10:00:15;;;;;;;73.57;19.92;;;;;;;-0.62;100.00;101176.89;1595341;90;21084;-84
2022/01/20 10:03:09;;;;;;;55.88;18.77;;;;;;;-0.62;100.00;101175.56;1595957;89;21112;-84
2022/01/20 10:05:38;;;;;;;;;;;;;;;-0.50;100.00;101162.77;1548067;92;21620;-85
2022/01/20 10:08:18;;;;;;;60.15;19.02;;;;;;;-0.34;100.00;101170.64;1524784;92;20770;-84
2022/01/20 10:10:49;;;;;;;64.00;17.75;;;;;;;-0.15;100.00;101171.19;1555082;91;21151;-85
2022/01/20 10:13:20;;;;;;;55.83;18.62;;;;;;;-0.13;100.00;101162.58;1551452;87;21145;-85
2022/01/20 10:16:19;;;;;;;55.15;17.42;;;;;;;-0.01;100.00;101158.02;1632762;87;21040;-85
2022/01/20 10:18:57;;;;;;;54.85;18.15;;;;;;;0.13;100.00;101152.97;1521688;93;21745;-86
2022/01/20 10:21:36;;;;;;;53.50;17.05;;;;;;;0.33;100.00;101153.31;1522493;94;21016;-86
2022/01/20 10:24:12;;;;;;;74.85;20.35;;;;;;;0.37;100.00;101154.08;1527122;92;21089;-83
2022/01/20 10:26:40;;;;;;;67.30;19.25;;;;;;;0.38;100.00;101150.92;1558285;92;21097;-84
2022/01/20 10:29:09;;;;;;;65.55;19.42;;;;;;;0.46;100.00;101150.86;1556184;92;21172;-85
2022/01/20 10:31:46;;;;;;;90.10;24.20;;;;;;;0.49;100.00;101146.52;1544697;91;21238;-85
2022/01/20 10:34:42;;;;;;;80.25;23.50;;;;;;;0.66;100.00;101145.87;1506067;93;21971;-86
2022/01/20 10:37:14;;;;;;;69.25;20.45;;;;;;;0.75;100.00;101130.70;1520015;93;21899;-86
2022/01/20 10:39:48;;;;;;;65.00;19.55;;;;;;;0.74;100.00;101131.21;1517231;93;21713;-85
2022/01/20 10:42:27;;;;;;;64.00;19.90;;;;;;;0.71;100.00;101126.27;1499700;93;21147;-85
2022/01/20 10:44:57;;;;;;;76.45;21.35;;;;;;;0.76;100.00;101124.38;1500492;93;21109;-85
2022/01/20 10:47:36;;;;;;;75.75;23.85;;;;;;;0.80;100.00;101105.28;1520680;92;22369;-85
2022/01/20 10:50:20;;;;;;;64.92;20.17;;;;;;;0.76;100.00;101107.95;1518610;93;22082;-84
2022/01/20 10:52:46;;;;;;;65.32;19.85;;;;;;;0.78;100.00;101101.16;1512284;92;21718;-84
2022/01/20 10:55:40;;;;;;;72.08;21.55;;;;;;;0.81;100.00;101098.96;1546976;88;21535;-85
2022/01/20 10:58:31;;;;;;;59.75;20.45;;;;;;;0.76;100.00;101093.38;1661167;84;21097;-84
2022/01/20 11:01:00;;;;;;;67.80;20.17;;;;;;;0.72;100.00;101084.14;1679029;82;21029;-84
2022/01/20 11:03:28;;;;;;;76.07;22.07;;;;;;;0.61;100.00;101081.43;1706115;82;21045;-85
2022/01/20 11:05:56;;;;;;;66.40;20.37;;;;;;;0.66;100.00;101086.20;1730851;82;21149;-84
2022/01/20 11:08:22;;;;;;;59.48;18.98;;;;;;;0.67;100.00;101084.68;1730765;82;20963;-85
2022/01/20 11:10:51;;;;;;;67.80;19.60;;;;;;;0.61;100.00;101079.29;1730994;82;21498;-85
2022/01/20 11:13:22;;;;;;;64.35;20.85;;;;;;;0.59;100.00;101071.53;1730749;82;21542;-85
2022/01/20 11:15:48;;;;;;;61.15;20.05;;;;;;;0.57;100.00;101060.27;1706976;82;21957;-86
2022/01/20 11:18:15;;;;;;;61.45;19.52;;;;;;;0.57;100.00;101058.95;1731022;82;20887;-87
2022/01/20 11:20:46;;;;;;;63.68;21.05;;;;;;;0.61;100.00;101056.75;1754554;80;21578;-84
2022/01/20 11:23:12;;;;;;;74.65;20.85;;;;;;;0.64;100.00;101044.45;1721511;83;21061;-84
2022/01/20 11:25:43;;;;;;;64.58;20.02;;;;;;;0.66;100.00;101033.16;1725516;83;21167;-84
2022/01/20 11:28:22;;;;;;;59.98;20.08;;;;;;;0.73;100.00;101027.94;1725444;83;21191;-84
2022/01/20 11:31:05;;;;;;;64.17;19.92;;;;;;;0.75;100.00;101032.56;1718807;83;21057;-86
2022/01/20 11:33:42;;;;;;;62.03;19.48;;;;;;;0.78;100.00;101029.03;1719171;83;21591;-86
2022/01/20 11:36:27;;;;;;;62.00;19.12;;;;;;;0.82;100.00;101021.02;1694036;84;21225;-86
2022/01/20 11:39:04;;;;;;;67.20;21.97;;;;;;;1.03;100.00;101026.05;1647391;85;21080;-86
2022/01/20 11:41:49;;;;;;;67.12;21.07;;;;;;;0.95;100.00;101020.37;1646936;86;21221;-85
2022/01/20 11:44:19;;;;;;;87.60;26.20;;;;;;;1.01;100.00;101021.46;1647154;87;22472;-84
2022/01/20 11:46:49;;;;;;;68.90;23.47;;;;;;;1.03;100.00;101010.13;1566542;90;21140;-84
2022/01/20 11:49:19;;;;;;;77.53;23.45;;;;;;;1.08;100.00;101014.38;1566574;91;21161;-85
2022/01/20 11:51:53;;;;;;;84.80;26.75;;;;;;;1.01;100.00;101003.70;1550952;90;21062;-85
2022/01/20 11:54:32;;;;;;;85.87;24.40;;;;;;;0.97;100.00;100997.61;1568078;90;22195;-86
2022/01/20 11:57:15;;;;;;;70.08;23.47;;;;;;;0.80;100.00;100999.17;1566727;90;21120;-85
2022/01/20 11:59:50;;;;;;;72.87;23.32;;;;;;;0.65;100.00;100997.05;1567199;91;21234;-84
2022/01/20 12:02:38;;;;;;;95.15;27.70;;;;;;;0.52;100.00;100992.38;1566728;91;21109;-85
2022/01/20 12:05:26;;;;;;;74.82;23.45;;;;;;;0.40;100.00;100984.06;1566433;91;21192;-85
2022/01/20 12:07:49;;;;;;;78.07;23.42;;;;;;;0.31;100.00;100983.02;1563259;91;21136;-86
2022/01/20 12:10:24;;;;;;;83.55;23.83;;;;;;;0.30;100.00;100981.39;1568574;87;21623;-85
2022/01/20 12:12:50;;;;;;;84.65;24.32;;;;;;;0.19;100.00;100986.63;1646179;87;21074;-85
2022/01/20 12:17:58;;;;;;;77.15;23.70;;;;;;;0.13;100.00;100986.03;1565643;90;21098;-86